Flight Track Log - Related Links

Times and Time Zones

All times are in EDT time to prevent confusion due to time zone crossing. See the KAP46 flight status page for this flight to view local times or setup timezone preferences in your user account.

Time Position Orientation Groundspeed Altitude Reporting Facility
EDT Latitude Longitude Course Direction KTS MPH feet Rate Location/Type
Sat 05:02:25 PM 44.7947 -74.7394 161° South 142 163 5,400  Level Boston Center
Sat 05:03:25 PM 44.7597 -74.7233 162° South 137 158 6,300 750 Climbing Boston Center
Sat 05:04:25 PM 44.7244 -74.7072 162° South 131 151 6,900 350 Climbing Boston Center
Sat 05:05:25 PM 44.6875 -74.6856 157° South 131 151 7,000 50 Climbing Boston Center
Sat 05:06:25 PM 44.6483 -74.6664 161° South 141 162 7,000  Level Boston Center
Sat 05:07:00 PM 44.7907 -74.7731 161° South  Level Estimated
Sat 05:07:25 PM 44.6089 -74.6444 158° South 152 175 7,000  Level Boston Center
Sat 05:08:25 PM 44.5697 -74.6286 164° South 152 175 7,000  Level Boston Center
Sat 05:09:25 PM 44.5283 -74.6094 162° South 152 175 7,000  Level Boston Center
Sat 05:10:25 PM 44.4892 -74.5936 164° South 152 175 7,000  Level Boston Center
Sat 05:11:25 PM 44.4458 -74.5717 160° South 158 182 7,000  Level Boston Center
Sat 05:12:25 PM 44.4003 -74.5497 161° South 163 188 7,000 -50 Level Boston Center
Sat 05:13:25 PM 44.3611 -74.5336 164° South 163 188 6,900  Descending Boston Center
Sat 05:14:25 PM 44.3197 -74.5147 162° South 163 188 7,000 50 Climbing Boston Center
Sat 05:15:25 PM 44.2783 -74.4931 159° South 163 188 7,000 50 Level Boston Center
Sat 05:16:25 PM 44.2350 -74.4742 163° South 158 182 7,100  Climbing Boston Center
Sat 05:17:25 PM 44.1936 -74.4553 162° South 164 189 7,000 -50 Descending Boston Center
Sat 05:18:25 PM 44.1503 -74.4367 163° South 164 189 7,000 50 Level Boston Center
Sat 05:19:25 PM 44.1069 -74.4147 160° South 164 189 7,100 50 Climbing Boston Center
Sat 05:20:25 PM 44.0656 -74.3961 162° South 164 189 7,100 -50 Level Boston Center
Sat 05:21:25 PM 44.0219 -74.3775 163° South 164 189 7,000  Descending Boston Center
Sat 05:22:25 PM 43.9806 -74.3586 162° South 164 189 7,100  Climbing Boston Center
Sat 05:23:25 PM 43.9372 -74.3400 163° South 164 189 7,000 -50 Descending Boston Center
Sat 05:24:25 PM 43.8939 -74.3214 163° South 164 189 7,000 -45 Level Boston Center
Sat 05:25:37 PM 43.8442 -74.2969 160° South 164 189 6,900 -45 Descending Boston Center
Sat 05:26:37 PM 43.8028 -74.2783 162° South 164 189 6,900 50 Level Boston Center
Sat 05:27:37 PM 43.7553 -74.2567 162° South 164 189 7,000  Climbing Boston Center
Sat 05:28:37 PM 43.7139 -74.2353 160° South 164 189 6,900 -50 Descending Boston Center
Sat 05:29:37 PM 43.6703 -74.2197 166° South 164 189 6,900  Level Boston Center
Sat 05:30:37 PM 43.6269 -74.1983 160° South 164 189 6,900 50 Level Boston Center
Sat 05:31:37 PM 43.5814 -74.1769 161° South 164 189 7,000  Climbing Boston Center
Sat 05:32:37 PM 43.5400 -74.1586 162° South 164 189 6,900 56 Descending Boston Center
Sat 05:33:25 PM 43.5028 -74.1433 163° South 165 190 7,100 56 Climbing Boston Center
Sat 05:34:25 PM 43.4592 -74.1247 163° South 165 190 7,000 -45 Descending Boston Center
Sat 05:35:37 PM 43.4136 -74.1008 159° South 164 189 7,000 49 Level Boston Center
Sat 05:36:27 PM 43.3722 -74.0853 165° South 164 189 7,100  Climbing Boston Center
Sat 05:37:28 PM 43.3289 -74.0642 160° South 167 192 7,000 -47 Descending Boston Center
Sat 05:38:34 PM 43.2792 -74.0400 161° South 169 194 7,000 -283 Level Boston Center
Sat 05:39:35 PM 43.2314 -74.0217 164° South 177 204 6,400 -590 Descending Boston Center
Sat 05:40:36 PM 43.1817 -73.9975 160° South 188 216 5,800 -645 Descending Boston Center
Sat 05:41:36 PM 43.1319 -73.9736 161° South 185 213 5,100 -645 Descending Boston Center
Sat 05:42:37 PM 43.0864 -73.9525 161° South 185 213 4,500 -656 Descending Boston Center
Sat 05:43:44 PM 43.0283 -73.9283 163° South 185 213 3,700 -700 Descending Boston Center
Sat 05:44:37 PM 42.9892 -73.9103 161° South 185 213 3,100 -637 Descending Boston Center
Sat 05:45:37 PM 42.9394 -73.8808 157° South 185 213 2,500 -600 Descending Boston Center
Sat 05:46:37 PM 42.9022 -73.8572 155° Southeast 180 207 1,900 -450 Descending Boston Center
Sat 05:47:37 PM 42.8525 -73.8336 161° South 170 196 1,600 -288 Descending Boston Center
Sat 05:48:42 PM 42.8131 -73.8156 161° South 145 167 1,300 -412 Descending Boston Center
Sat 05:49:48 PM 42.7797 -73.8092 172° South 102 117 700 -545 Descending Boston Center

Login

Don't have an account? Register now (free) for customized features, flight alerts, and more!